sensor_id;sensor_type;location;lat;lon;timestamp;P1;durP1;ratioP1;P2;durP2;ratioP2
5929;SDS011;2990;48.746;9.236;2023-01-01T00:00:06;5.20;;;4.53;;
5929;SDS011;2990;48.746;9.236;2023-01-01T00:02:32;5.97;;;5.72;;
5929;SDS011;2990;48.746;9.236;2023-01-01T00:04:59;3.45;;;3.15;;
5929;SDS011;2990;48.746;9.236;2023-01-01T00:07:24;2.47;;;2.38;;
5929;SDS011;2990;48.746;9.236;2023-01-01T00:09:50;2.35;;;2.25;;
5929;SDS011;2990;48.746;9.236;2023-01-01T00:12:34;2.10;;;2.03;;
5929;SDS011;2990;48.746;9.236;2023-01-01T00:15:00;1.98;;;1.88;;
5929;SDS011;2990;48.746;9.236;2023-01-01T00:17:25;1.08;;;1.08;;
5929;SDS011;2990;48.746;9.236;2023-01-01T00:19:53;2.47;;;1.85;;
5929;SDS011;2990;48.746;9.236;2023-01-01T00:22:19;1.65;;;1.65;;
5929;SDS011;2990;48.746;9.236;2023-01-01T00:24:45;1.10;;;1.10;;
5929;SDS011;2990;48.746;9.236;2023-01-01T00:27:11;1.92;;;1.83;;
5929;SDS011;2990;48.746;9.236;2023-01-01T00:29:36;1.30;;;1.30;;
5929;SDS011;2990;48.746;9.236;2023-01-01T00:32:02;0.75;;;0.75;;
5929;SDS011;2990;48.746;9.236;2023-01-01T00:34:27;1.75;;;1.65;;
5929;SDS011;2990;48.746;9.236;2023-01-01T00:36:53;0.95;;;0.95;;
5929;SDS011;2990;48.746;9.236;2023-01-01T00:39:19;1.58;;;0.90;;
5929;SDS011;2990;48.746;9.236;2023-01-01T00:41:44;0.60;;;0.60;;
5929;SDS011;2990;48.746;9.236;2023-01-01T00:44:10;1.80;;;1.70;;
5929;SDS011;2990;48.746;9.236;2023-01-01T00:46:35;1.17;;;1.17;;
5929;SDS011;2990;48.746;9.236;2023-01-01T00:49:01;0.88;;;0.88;;
5929;SDS011;2990;48.746;9.236;2023-01-01T00:51:26;1.58;;;1.45;;
5929;SDS011;2990;48.746;9.236;2023-01-01T00:53:52;1.95;;;1.77;;
5929;SDS011;2990;48.746;9.236;2023-01-01T00:56:17;0.47;;;0.47;;
5929;SDS011;2990;48.746;9.236;2023-01-01T00:58:43;0.80;;;0.80;;
5929;SDS011;2990;48.746;9.236;2023-01-01T01:01:09;0.50;;;0.50;;
5929;SDS011;2990;48.746;9.236;2023-01-01T01:03:36;0.80;;;0.70;;
5929;SDS011;2990;48.746;9.236;2023-01-01T01:08:32;1.40;;;0.60;;
5929;SDS011;2990;48.746;9.236;2023-01-01T01:11:05;1.33;;;0.77;;
5929;SDS011;2990;48.746;9.236;2023-01-01T01:13:42;0.70;;;0.70;;
5929;SDS011;2990;48.746;9.236;2023-01-01T01:16:15;1.02;;;0.85;;
5929;SDS011;2990;48.746;9.236;2023-01-01T01:18:44;0.55;;;0.55;;
5929;SDS011;2990;48.746;9.236;2023-01-01T01:21:10;0.55;;;0.55;;
5929;SDS011;2990;48.746;9.236;2023-01-01T01:23:39;1.10;;;1.10;;
5929;SDS011;2990;48.746;9.236;2023-01-01T01:26:15;0.70;;;0.70;;
5929;SDS011;2990;48.746;9.236;2023-01-01T01:28:42;1.00;;;0.77;;
5929;SDS011;2990;48.746;9.236;2023-01-01T01:31:11;0.55;;;0.55;;
5929;SDS011;2990;48.746;9.236;2023-01-01T01:33:37;0.60;;;0.60;;
5929;SDS011;2990;48.746;9.236;2023-01-01T01:36:05;0.90;;;0.90;;
5929;SDS011;2990;48.746;9.236;2023-01-01T01:38:31;0.65;;;0.65;;
5929;SDS011;2990;48.746;9.236;2023-01-01T01:40:57;1.48;;;0.50;;
5929;SDS011;2990;48.746;9.236;2023-01-01T01:43:24;1.80;;;0.95;;
5929;SDS011;2990;48.746;9.236;2023-01-01T01:46:13;1.15;;;0.88;;
5929;SDS011;2990;48.746;9.236;2023-01-01T01:48:48;1.20;;;1.20;;
5929;SDS011;2990;48.746;9.236;2023-01-01T01:51:17;1.65;;;1.65;;
5929;SDS011;2990;48.746;9.236;2023-01-01T01:53:49;1.20;;;1.10;;
5929;SDS011;2990;48.746;9.236;2023-01-01T01:56:19;0.70;;;0.70;;
5929;SDS011;2990;48.746;9.236;2023-01-01T01:58:50;0.77;;;0.77;;
5929;SDS011;2990;48.746;9.236;2023-01-01T02:01:15;0.82;;;0.82;;
5929;SDS011;2990;48.746;9.236;2023-01-01T02:03:57;1.00;;;1.00;;
5929;SDS011;2990;48.746;9.236;2023-01-01T02:06:29;0.65;;;0.65;;
5929;SDS011;2990;48.746;9.236;2023-01-01T02:08:56;1.25;;;1.17;;
5929;SDS011;2990;48.746;9.236;2023-01-01T02:11:24;0.60;;;0.60;;
5929;SDS011;2990;48.746;9.236;2023-01-01T02:13:50;0.85;;;0.85;;
5929;SDS011;2990;48.746;9.236;2023-01-01T02:19:06;0.70;;;0.70;;
5929;SDS011;2990;48.746;9.236;2023-01-01T02:30:58;0.73;;;0.50;;
5929;SDS011;2990;48.746;9.236;2023-01-01T02:33:25;0.70;;;0.70;;
5929;SDS011;2990;48.746;9.236;2023-01-01T02:36:00;1.15;;;1.15;;
5929;SDS011;2990;48.746;9.236;2023-01-01T02:38:35;0.95;;;0.95;;
5929;SDS011;2990;48.746;9.236;2023-01-01T02:41:05;0.77;;;0.77;;
5929;SDS011;2990;48.746;9.236;2023-01-01T02:43:34;0.63;;;0.63;;
5929;SDS011;2990;48.746;9.236;2023-01-01T02:46:04;1.15;;;1.10;;
5929;SDS011;2990;48.746;9.236;2023-01-01T02:53:58;0.63;;;0.63;;
5929;SDS011;2990;48.746;9.236;2023-01-01T02:56:42;0.57;;;0.50;;
5929;SDS011;2990;48.746;9.236;2023-01-01T03:04:55;0.40;;;0.40;;
5929;SDS011;2990;48.746;9.236;2023-01-01T03:07:37;0.10;;;0.10;;
5929;SDS011;2990;48.746;9.236;2023-01-01T03:12:54;0.80;;;0.80;;
5929;SDS011;2990;48.746;9.236;2023-01-01T03:17:57;0.63;;;0.63;;
5929;SDS011;2990;48.746;9.236;2023-01-01T03:20:31;0.22;;;0.22;;
5929;SDS011;2990;48.746;9.236;2023-01-01T03:23:02;0.30;;;0.30;;
5929;SDS011;2990;48.746;9.236;2023-01-01T03:25:35;0.30;;;0.30;;
5929;SDS011;2990;48.746;9.236;2023-01-01T03:28:06;0.57;;;0.57;;
5929;SDS011;2990;48.746;9.236;2023-01-01T03:30:37;0.60;;;0.52;;
5929;SDS011;2990;48.746;9.236;2023-01-01T03:33:07;0.57;;;0.57;;
5929;SDS011;2990;48.746;9.236;2023-01-01T03:36:04;0.20;;;0.20;;
5929;SDS011;2990;48.746;9.236;2023-01-01T03:38:47;0.50;;;0.50;;
5929;SDS011;2990;48.746;9.236;2023-01-01T03:43:53;0.47;;;0.43;;
5929;SDS011;2990;48.746;9.236;2023-01-01T03:46:28;0.73;;;0.73;;
5929;SDS011;2990;48.746;9.236;2023-01-01T03:48:55;0.52;;;0.52;;
5929;SDS011;2990;48.746;9.236;2023-01-01T03:52:09;1.27;;;0.60;;
5929;SDS011;2990;48.746;9.236;2023-01-01T03:54:17;0.80;;;0.25;;
5929;SDS011;2990;48.746;9.236;2023-01-01T04:00:33;0.20;;;0.20;;
5929;SDS011;2990;48.746;9.236;2023-01-01T04:03:03;0.20;;;0.20;;
5929;SDS011;2990;48.746;9.236;2023-01-01T04:05:34;0.75;;;0.40;;
5929;SDS011;2990;48.746;9.236;2023-01-01T04:08:02;0.38;;;0.38;;
5929;SDS011;2990;48.746;9.236;2023-01-01T04:10:29;0.50;;;0.50;;
5929;SDS011;2990;48.746;9.236;2023-01-01T04:12:57;0.10;;;0.10;;
5929;SDS011;2990;48.746;9.236;2023-01-01T04:15:24;0.43;;;0.43;;
5929;SDS011;2990;48.746;9.236;2023-01-01T04:17:51;0.20;;;0.20;;
5929;SDS011;2990;48.746;9.236;2023-01-01T04:20:17;0.40;;;0.40;;
5929;SDS011;2990;48.746;9.236;2023-01-01T04:22:44;0.20;;;0.20;;
5929;SDS011;2990;48.746;9.236;2023-01-01T04:25:10;0.60;;;0.60;;
5929;SDS011;2990;48.746;9.236;2023-01-01T04:27:37;0.25;;;0.25;;
5929;SDS011;2990;48.746;9.236;2023-01-01T04:30:04;0.60;;;0.40;;
5929;SDS011;2990;48.746;9.236;2023-01-01T04:32:31;0.20;;;0.20;;
5929;SDS011;2990;48.746;9.236;2023-01-01T04:34:57;0.20;;;0.20;;
5929;SDS011;2990;48.746;9.236;2023-01-01T04:37:23;0.57;;;0.57;;
5929;SDS011;2990;48.746;9.236;2023-01-01T04:39:48;0.43;;;0.43;;
5929;SDS011;2990;48.746;9.236;2023-01-01T04:42:14;0.38;;;0.38;;
5929;SDS011;2990;48.746;9.236;2023-01-01T04:44:39;0.57;;;0.30;;
5929;SDS011;2990;48.746;9.236;2023-01-01T04:47:06;0.32;;;0.32;;
5929;SDS011;2990;48.746;9.236;2023-01-01T04:49:32;0.10;;;0.10;;
5929;SDS011;2990;48.746;9.236;2023-01-01T04:51:57;0.50;;;0.50;;
5929;SDS011;2990;48.746;9.236;2023-01-01T04:54:23;0.40;;;0.40;;
5929;SDS011;2990;48.746;9.236;2023-01-01T04:56:51;0.30;;;0.30;;
5929;SDS011;2990;48.746;9.236;2023-01-01T04:59:17;0.38;;;0.30;;
5929;SDS011;2990;48.746;9.236;2023-01-01T05:01:48;0.10;;;0.10;;
5929;SDS011;2990;48.746;9.236;2023-01-01T05:04:14;0.85;;;0.30;;
5929;SDS011;2990;48.746;9.236;2023-01-01T05:06:41;1.13;;;0.25;;
5929;SDS011;2990;48.746;9.236;2023-01-01T05:09:10;0.20;;;0.20;;
5929;SDS011;2990;48.746;9.236;2023-01-01T05:11:36;0.25;;;0.25;;
5929;SDS011;2990;48.746;9.236;2023-01-01T05:14:02;0.25;;;0.25;;
5929;SDS011;2990;48.746;9.236;2023-01-01T05:16:29;0.20;;;0.20;;
5929;SDS011;2990;48.746;9.236;2023-01-01T05:18:55;0.20;;;0.20;;
5929;SDS011;2990;48.746;9.236;2023-01-01T05:21:22;0.50;;;0.50;;
5929;SDS011;2990;48.746;9.236;2023-01-01T05:23:53;0.35;;;0.35;;
5929;SDS011;2990;48.746;9.236;2023-01-01T05:26:21;0.40;;;0.40;;
5929;SDS011;2990;48.746;9.236;2023-01-01T05:28:48;5.07;;;0.30;;
5929;SDS011;2990;48.746;9.236;2023-01-01T05:31:18;0.30;;;0.30;;
5929;SDS011;2990;48.746;9.236;2023-01-01T05:33:46;0.28;;;0.20;;
5929;SDS011;2990;48.746;9.236;2023-01-01T05:36:16;0.25;;;0.25;;
5929;SDS011;2990;48.746;9.236;2023-01-01T05:38:44;0.75;;;0.75;;
5929;SDS011;2990;48.746;9.236;2023-01-01T05:41:14;0.10;;;0.10;;
5929;SDS011;2990;48.746;9.236;2023-01-01T05:43:40;0.40;;;0.40;;
5929;SDS011;2990;48.746;9.236;2023-01-01T05:46:14;0.20;;;0.20;;
5929;SDS011;2990;48.746;9.236;2023-01-01T05:48:43;0.57;;;0.57;;
5929;SDS011;2990;48.746;9.236;2023-01-01T05:51:10;0.20;;;0.20;;
5929;SDS011;2990;48.746;9.236;2023-01-01T05:53:40;0.15;;;0.15;;
5929;SDS011;2990;48.746;9.236;2023-01-01T05:56:08;0.32;;;0.32;;
5929;SDS011;2990;48.746;9.236;2023-01-01T05:58:39;0.63;;;0.63;;
5929;SDS011;2990;48.746;9.236;2023-01-01T06:03:34;0.20;;;0.20;;
5929;SDS011;2990;48.746;9.236;2023-01-01T06:06:06;0.10;;;0.10;;
5929;SDS011;2990;48.746;9.236;2023-01-01T06:08:34;0.38;;;0.38;;
5929;SDS011;2990;48.746;9.236;2023-01-01T06:11:03;0.38;;;0.38;;
5929;SDS011;2990;48.746;9.236;2023-01-01T06:13:30;0.40;;;0.40;;
5929;SDS011;2990;48.746;9.236;2023-01-01T06:15:56;0.40;;;0.40;;
5929;SDS011;2990;48.746;9.236;2023-01-01T06:18:23;0.25;;;0.25;;
5929;SDS011;2990;48.746;9.236;2023-01-01T06:20:50;0.10;;;0.10;;
5929;SDS011;2990;48.746;9.236;2023-01-01T06:23:16;0.22;;;0.22;;
5929;SDS011;2990;48.746;9.236;2023-01-01T06:25:50;0.38;;;0.38;;
5929;SDS011;2990;48.746;9.236;2023-01-01T06:28:16;0.40;;;0.40;;
5929;SDS011;2990;48.746;9.236;2023-01-01T06:30:41;0.20;;;0.20;;
5929;SDS011;2990;48.746;9.236;2023-01-01T06:33:07;0.30;;;0.30;;
5929;SDS011;2990;48.746;9.236;2023-01-01T06:35:33;0.50;;;0.50;;
5929;SDS011;2990;48.746;9.236;2023-01-01T06:37:59;0.38;;;0.38;;
5929;SDS011;2990;48.746;9.236;2023-01-01T06:40:24;0.40;;;0.40;;
5929;SDS011;2990;48.746;9.236;2023-01-01T06:42:50;0.13;;;0.13;;
5929;SDS011;2990;48.746;9.236;2023-01-01T06:45:16;0.20;;;0.20;;
5929;SDS011;2990;48.746;9.236;2023-01-01T06:47:41;0.40;;;0.40;;
5929;SDS011;2990;48.746;9.236;2023-01-01T06:50:10;0.20;;;0.20;;
5929;SDS011;2990;48.746;9.236;2023-01-01T06:52:38;0.10;;;0.10;;
5929;SDS011;2990;48.746;9.236;2023-01-01T06:55:11;0.10;;;0.10;;
5929;SDS011;2990;48.746;9.236;2023-01-01T06:57:37;0.10;;;0.10;;
5929;SDS011;2990;48.746;9.236;2023-01-01T07:00:03;0.20;;;0.20;;
5929;SDS011;2990;48.746;9.236;2023-01-01T07:02:29;0.20;;;0.20;;
5929;SDS011;2990;48.746;9.236;2023-01-01T07:04:58;0.28;;;0.20;;
5929;SDS011;2990;48.746;9.236;2023-01-01T07:07:23;0.28;;;0.20;;
5929;SDS011;2990;48.746;9.236;2023-01-01T07:09:49;0.10;;;0.10;;
5929;SDS011;2990;48.746;9.236;2023-01-01T07:12:15;0.20;;;0.20;;
5929;SDS011;2990;48.746;9.236;2023-01-01T07:14:40;0.30;;;0.30;;
5929;SDS011;2990;48.746;9.236;2023-01-01T07:17:06;0.22;;;0.20;;
5929;SDS011;2990;48.746;9.236;2023-01-01T07:19:31;0.22;;;0.22;;
5929;SDS011;2990;48.746;9.236;2023-01-01T07:21:57;0.10;;;0.10;;
5929;SDS011;2990;48.746;9.236;2023-01-01T07:24:23;0.30;;;0.30;;
5929;SDS011;2990;48.746;9.236;2023-01-01T07:26:48;0.30;;;0.30;;
5929;SDS011;2990;48.746;9.236;2023-01-01T07:29:14;0.20;;;0.20;;
5929;SDS011;2990;48.746;9.236;2023-01-01T07:31:40;0.20;;;0.20;;
5929;SDS011;2990;48.746;9.236;2023-01-01T07:34:08;0.20;;;0.20;;
5929;SDS011;2990;48.746;9.236;2023-01-01T07:36:42;0.55;;;0.50;;
5929;SDS011;2990;48.746;9.236;2023-01-01T07:39:08;0.30;;;0.30;;
5929;SDS011;2990;48.746;9.236;2023-01-01T07:41:36;0.13;;;0.13;;
5929;SDS011;2990;48.746;9.236;2023-01-01T07:44:09;0.10;;;0.10;;
5929;SDS011;2990;48.746;9.236;2023-01-01T07:46:41;0.10;;;0.10;;
5929;SDS011;2990;48.746;9.236;2023-01-01T07:49:09;0.20;;;0.10;;
5929;SDS011;2990;48.746;9.236;2023-01-01T07:51:43;0.25;;;0.25;;
5929;SDS011;2990;48.746;9.236;2023-01-01T07:54:26;0.35;;;0.35;;
5929;SDS011;2990;48.746;9.236;2023-01-01T07:56:52;0.13;;;0.13;;
5929;SDS011;2990;48.746;9.236;2023-01-01T07:59:20;0.20;;;0.20;;
5929;SDS011;2990;48.746;9.236;2023-01-01T08:01:46;0.38;;;0.38;;
5929;SDS011;2990;48.746;9.236;2023-01-01T08:04:12;0.40;;;0.40;;
5929;SDS011;2990;48.746;9.236;2023-01-01T08:06:37;0.30;;;0.30;;
5929;SDS011;2990;48.746;9.236;2023-01-01T08:09:03;0.20;;;0.20;;
5929;SDS011;2990;48.746;9.236;2023-01-01T08:11:29;0.20;;;0.20;;
5929;SDS011;2990;48.746;9.236;2023-01-01T08:13:57;0.28;;;0.28;;
5929;SDS011;2990;48.746;9.236;2023-01-01T08:16:25;0.30;;;0.30;;
5929;SDS011;2990;48.746;9.236;2023-01-01T08:18:57;0.75;;;0.75;;
5929;SDS011;2990;48.746;9.236;2023-01-01T08:21:22;0.13;;;0.13;;
5929;SDS011;2990;48.746;9.236;2023-01-01T08:23:51;0.30;;;0.30;;
5929;SDS011;2990;48.746;9.236;2023-01-01T08:26:32;0.20;;;0.20;;
5929;SDS011;2990;48.746;9.236;2023-01-01T08:29:03;0.10;;;0.10;;
5929;SDS011;2990;48.746;9.236;2023-01-01T08:31:30;0.25;;;0.25;;
5929;SDS011;2990;48.746;9.236;2023-01-01T08:34:14;0.20;;;0.20;;
5929;SDS011;2990;48.746;9.236;2023-01-01T08:36:43;0.28;;;0.28;;
5929;SDS011;2990;48.746;9.236;2023-01-01T08:39:18;0.20;;;0.20;;
5929;SDS011;2990;48.746;9.236;2023-01-01T08:41:53;0.47;;;0.47;;
5929;SDS011;2990;48.746;9.236;2023-01-01T08:47:27;1.02;;;0.47;;
5929;SDS011;2990;48.746;9.236;2023-01-01T08:50:01;0.28;;;0.28;;
5929;SDS011;2990;48.746;9.236;2023-01-01T08:52:39;0.52;;;0.38;;
5929;SDS011;2990;48.746;9.236;2023-01-01T08:55:05;0.20;;;0.13;;
5929;SDS011;2990;48.746;9.236;2023-01-01T08:57:40;0.17;;;0.17;;
5929;SDS011;2990;48.746;9.236;2023-01-01T09:00:16;0.28;;;0.28;;
5929;SDS011;2990;48.746;9.236;2023-01-01T09:02:47;0.40;;;0.30;;
5929;SDS011;2990;48.746;9.236;2023-01-01T09:05:25;0.32;;;0.32;;
5929;SDS011;2990;48.746;9.236;2023-01-01T09:08:00;1.38;;;0.82;;
5929;SDS011;2990;48.746;9.236;2023-01-01T09:10:56;0.20;;;0.20;;
5929;SDS011;2990;48.746;9.236;2023-01-01T09:13:26;1.40;;;0.20;;
5929;SDS011;2990;48.746;9.236;2023-01-01T09:15:58;0.28;;;0.20;;
5929;SDS011;2990;48.746;9.236;2023-01-01T09:18:26;0.45;;;0.45;;
5929;SDS011;2990;48.746;9.236;2023-01-01T09:20:52;0.88;;;0.88;;
5929;SDS011;2990;48.746;9.236;2023-01-01T09:23:18;0.38;;;0.38;;
5929;SDS011;2990;48.746;9.236;2023-01-01T09:25:43;0.30;;;0.30;;
5929;SDS011;2990;48.746;9.236;2023-01-01T09:28:12;0.10;;;0.10;;
5929;SDS011;2990;48.746;9.236;2023-01-01T09:30:38;0.30;;;0.30;;
5929;SDS011;2990;48.746;9.236;2023-01-01T09:33:04;0.38;;;0.38;;
5929;SDS011;2990;48.746;9.236;2023-01-01T09:35:30;0.57;;;0.57;;
5929;SDS011;2990;48.746;9.236;2023-01-01T09:37:55;1.75;;;0.80;;
5929;SDS011;2990;48.746;9.236;2023-01-01T09:46:07;0.30;;;0.30;;
5929;SDS011;2990;48.746;9.236;2023-01-01T09:48:35;0.28;;;0.28;;
5929;SDS011;2990;48.746;9.236;2023-01-01T09:51:05;0.40;;;0.40;;
5929;SDS011;2990;48.746;9.236;2023-01-01T09:53:39;0.20;;;0.20;;
5929;SDS011;2990;48.746;9.236;2023-01-01T09:56:13;4.28;;;0.95;;
5929;SDS011;2990;48.746;9.236;2023-01-01T09:58:43;0.30;;;0.30;;
5929;SDS011;2990;48.746;9.236;2023-01-01T10:01:13;0.28;;;0.28;;
5929;SDS011;2990;48.746;9.236;2023-01-01T10:03:57;0.45;;;0.45;;
5929;SDS011;2990;48.746;9.236;2023-01-01T10:09:45;0.30;;;0.30;;
5929;SDS011;2990;48.746;9.236;2023-01-01T10:15:33;0.30;;;0.30;;
5929;SDS011;2990;48.746;9.236;2023-01-01T10:18:05;1.30;;;0.52;;
5929;SDS011;2990;48.746;9.236;2023-01-01T10:20:43;0.50;;;0.50;;
5929;SDS011;2990;48.746;9.236;2023-01-01T10:23:41;0.20;;;0.20;;
5929;SDS011;2990;48.746;9.236;2023-01-01T10:26:31;0.25;;;0.25;;
5929;SDS011;2990;48.746;9.236;2023-01-01T10:29:11;0.57;;;0.57;;
5929;SDS011;2990;48.746;9.236;2023-01-01T10:31:44;0.40;;;0.40;;
5929;SDS011;2990;48.746;9.236;2023-01-01T10:34:16;0.13;;;0.13;;
5929;SDS011;2990;48.746;9.236;2023-01-01T10:36:59;0.30;;;0.30;;
5929;SDS011;2990;48.746;9.236;2023-01-01T10:39:47;0.38;;;0.38;;
5929;SDS011;2990;48.746;9.236;2023-01-01T10:42:14;0.35;;;0.35;;
5929;SDS011;2990;48.746;9.236;2023-01-01T10:44:49;0.30;;;0.30;;
5929;SDS011;2990;48.746;9.236;2023-01-01T10:47:25;0.30;;;0.30;;
5929;SDS011;2990;48.746;9.236;2023-01-01T10:50:02;0.20;;;0.20;;
5929;SDS011;2990;48.746;9.236;2023-01-01T10:52:54;0.35;;;0.30;;
5929;SDS011;2990;48.746;9.236;2023-01-01T10:55:30;0.30;;;0.30;;
5929;SDS011;2990;48.746;9.236;2023-01-01T10:58:06;0.47;;;0.47;;
5929;SDS011;2990;48.746;9.236;2023-01-01T11:01:05;0.57;;;0.57;;
5929;SDS011;2990;48.746;9.236;2023-01-01T11:04:18;0.25;;;0.25;;
5929;SDS011;2990;48.746;9.236;2023-01-01T11:06:42;0.20;;;0.20;;
5929;SDS011;2990;48.746;9.236;2023-01-01T11:09:25;0.30;;;0.30;;
5929;SDS011;2990;48.746;9.236;2023-01-01T11:12:04;1.55;;;0.82;;
5929;SDS011;2990;48.746;9.236;2023-01-01T11:14:40;0.25;;;0.25;;
5929;SDS011;2990;48.746;9.236;2023-01-01T11:17:20;0.50;;;0.50;;
5929;SDS011;2990;48.746;9.236;2023-01-01T11:19:52;0.32;;;0.32;;
5929;SDS011;2990;48.746;9.236;2023-01-01T11:22:41;0.63;;;0.40;;
5929;SDS011;2990;48.746;9.236;2023-01-01T11:28:12;0.28;;;0.28;;
5929;SDS011;2990;48.746;9.236;2023-01-01T11:33:55;0.50;;;0.50;;
5929;SDS011;2990;48.746;9.236;2023-01-01T11:41:54;0.35;;;0.35;;
5929;SDS011;2990;48.746;9.236;2023-01-01T11:47:06;0.40;;;0.40;;
5929;SDS011;2990;48.746;9.236;2023-01-01T11:49:43;0.50;;;0.50;;
5929;SDS011;2990;48.746;9.236;2023-01-01T11:58:15;0.30;;;0.30;;
5929;SDS011;2990;48.746;9.236;2023-01-01T12:00:56;0.25;;;0.25;;
5929;SDS011;2990;48.746;9.236;2023-01-01T12:06:42;0.30;;;0.30;;
5929;SDS011;2990;48.746;9.236;2023-01-01T12:09:27;0.30;;;0.30;;
5929;SDS011;2990;48.746;9.236;2023-01-01T12:12:42;0.20;;;0.20;;
5929;SDS011;2990;48.746;9.236;2023-01-01T12:18:15;0.32;;;0.32;;
5929;SDS011;2990;48.746;9.236;2023-01-01T12:23:53;0.40;;;0.40;;
5929;SDS011;2990;48.746;9.236;2023-01-01T12:26:23;0.20;;;0.20;;
5929;SDS011;2990;48.746;9.236;2023-01-01T12:29:31;0.30;;;0.30;;
5929;SDS011;2990;48.746;9.236;2023-01-01T12:34:47;0.20;;;0.20;;
5929;SDS011;2990;48.746;9.236;2023-01-01T12:40:29;0.30;;;0.30;;
5929;SDS011;2990;48.746;9.236;2023-01-01T12:43:13;0.65;;;0.60;;
5929;SDS011;2990;48.746;9.236;2023-01-01T12:48:32;0.30;;;0.30;;
5929;SDS011;2990;48.746;9.236;2023-01-01T12:59:13;0.10;;;0.10;;
5929;SDS011;2990;48.746;9.236;2023-01-01T13:01:46;1.15;;;0.17;;
5929;SDS011;2990;48.746;9.236;2023-01-01T13:04:16;0.25;;;0.25;;
5929;SDS011;2990;48.746;9.236;2023-01-01T13:06:48;0.28;;;0.28;;
5929;SDS011;2990;48.746;9.236;2023-01-01T13:09:28;0.20;;;0.20;;
5929;SDS011;2990;48.746;9.236;2023-01-01T13:12:00;2.58;;;0.60;;
5929;SDS011;2990;48.746;9.236;2023-01-01T13:14:36;0.35;;;0.35;;
5929;SDS011;2990;48.746;9.236;2023-01-01T13:17:28;0.20;;;0.20;;
5929;SDS011;2990;48.746;9.236;2023-01-01T13:22:48;1.23;;;0.30;;
5929;SDS011;2990;48.746;9.236;2023-01-01T13:30:44;0.20;;;0.20;;
5929;SDS011;2990;48.746;9.236;2023-01-01T13:38:57;0.40;;;0.40;;
5929;SDS011;2990;48.746;9.236;2023-01-01T13:43:51;0.20;;;0.20;;
5929;SDS011;2990;48.746;9.236;2023-01-01T13:46:24;0.20;;;0.20;;
5929;SDS011;2990;48.746;9.236;2023-01-01T13:49:19;0.38;;;0.38;;
5929;SDS011;2990;48.746;9.236;2023-01-01T14:03:38;0.20;;;0.20;;
5929;SDS011;2990;48.746;9.236;2023-01-01T14:06:20;0.30;;;0.30;;
5929;SDS011;2990;48.746;9.236;2023-01-01T14:09:13;0.30;;;0.30;;
5929;SDS011;2990;48.746;9.236;2023-01-01T14:11:41;0.40;;;0.40;;
5929;SDS011;2990;48.746;9.236;2023-01-01T14:14:25;0.95;;;0.52;;
5929;SDS011;2990;48.746;9.236;2023-01-01T14:17:14;0.95;;;0.30;;
5929;SDS011;2990;48.746;9.236;2023-01-01T14:19:41;1.27;;;1.27;;
5929;SDS011;2990;48.746;9.236;2023-01-01T14:22:08;0.32;;;0.32;;
5929;SDS011;2990;48.746;9.236;2023-01-01T14:24:45;0.28;;;0.28;;
5929;SDS011;2990;48.746;9.236;2023-01-01T14:27:19;1.67;;;0.68;;
5929;SDS011;2990;48.746;9.236;2023-01-01T14:30:30;0.20;;;0.20;;
5929;SDS011;2990;48.746;9.236;2023-01-01T14:43:08;0.82;;;0.82;;
5929;SDS011;2990;48.746;9.236;2023-01-01T14:52:40;0.20;;;0.20;;
5929;SDS011;2990;48.746;9.236;2023-01-01T15:15:39;0.40;;;0.40;;
5929;SDS011;2990;48.746;9.236;2023-01-01T15:18:33;0.55;;;0.55;;
5929;SDS011;2990;48.746;9.236;2023-01-01T15:20:59;0.88;;;0.88;;
5929;SDS011;2990;48.746;9.236;2023-01-01T15:23:26;0.43;;;0.43;;
5929;SDS011;2990;48.746;9.236;2023-01-01T15:25:52;0.45;;;0.45;;
5929;SDS011;2990;48.746;9.236;2023-01-01T15:28:18;0.40;;;0.40;;
5929;SDS011;2990;48.746;9.236;2023-01-01T15:30:50;0.30;;;0.30;;
5929;SDS011;2990;48.746;9.236;2023-01-01T15:33:18;0.65;;;0.65;;
5929;SDS011;2990;48.746;9.236;2023-01-01T15:35:47;0.47;;;0.47;;
5929;SDS011;2990;48.746;9.236;2023-01-01T15:40:43;0.60;;;0.60;;
5929;SDS011;2990;48.746;9.236;2023-01-01T15:43:19;0.43;;;0.43;;
5929;SDS011;2990;48.746;9.236;2023-01-01T15:45:59;0.40;;;0.40;;
5929;SDS011;2990;48.746;9.236;2023-01-01T15:48:48;0.80;;;0.80;;
5929;SDS011;2990;48.746;9.236;2023-01-01T15:54:52;0.70;;;0.30;;
5929;SDS011;2990;48.746;9.236;2023-01-01T15:57:26;0.40;;;0.40;;
5929;SDS011;2990;48.746;9.236;2023-01-01T15:59:55;0.50;;;0.50;;
5929;SDS011;2990;48.746;9.236;2023-01-01T16:02:45;0.40;;;0.40;;
5929;SDS011;2990;48.746;9.236;2023-01-01T16:05:15;0.38;;;0.38;;
5929;SDS011;2990;48.746;9.236;2023-01-01T16:07:55;0.50;;;0.50;;
5929;SDS011;2990;48.746;9.236;2023-01-01T16:10:33;0.93;;;0.93;;
5929;SDS011;2990;48.746;9.236;2023-01-01T16:16:32;0.30;;;0.30;;
5929;SDS011;2990;48.746;9.236;2023-01-01T16:22:45;0.43;;;0.43;;
5929;SDS011;2990;48.746;9.236;2023-01-01T16:25:53;0.50;;;0.50;;
5929;SDS011;2990;48.746;9.236;2023-01-01T16:28:19;0.40;;;0.40;;
5929;SDS011;2990;48.746;9.236;2023-01-01T16:30:47;0.47;;;0.47;;
5929;SDS011;2990;48.746;9.236;2023-01-01T16:33:17;0.40;;;0.40;;
5929;SDS011;2990;48.746;9.236;2023-01-01T16:35:45;0.20;;;0.20;;
5929;SDS011;2990;48.746;9.236;2023-01-01T16:38:14;1.17;;;0.40;;
5929;SDS011;2990;48.746;9.236;2023-01-01T16:40:42;0.40;;;0.40;;
5929;SDS011;2990;48.746;9.236;2023-01-01T16:43:13;0.30;;;0.30;;
5929;SDS011;2990;48.746;9.236;2023-01-01T16:45:42;0.20;;;0.20;;
5929;SDS011;2990;48.746;9.236;2023-01-01T16:48:11;0.43;;;0.43;;
5929;SDS011;2990;48.746;9.236;2023-01-01T16:50:46;0.30;;;0.30;;
5929;SDS011;2990;48.746;9.236;2023-01-01T16:53:15;0.73;;;0.73;;
5929;SDS011;2990;48.746;9.236;2023-01-01T16:55:48;0.30;;;0.30;;
5929;SDS011;2990;48.746;9.236;2023-01-01T16:58:15;0.28;;;0.28;;
5929;SDS011;2990;48.746;9.236;2023-01-01T17:00:40;0.30;;;0.30;;
5929;SDS011;2990;48.746;9.236;2023-01-01T17:03:06;0.20;;;0.20;;
5929;SDS011;2990;48.746;9.236;2023-01-01T17:05:34;0.50;;;0.50;;
5929;SDS011;2990;48.746;9.236;2023-01-01T17:08:00;0.20;;;0.20;;
5929;SDS011;2990;48.746;9.236;2023-01-01T17:10:26;0.90;;;0.40;;
5929;SDS011;2990;48.746;9.236;2023-01-01T17:12:51;0.30;;;0.30;;
5929;SDS011;2990;48.746;9.236;2023-01-01T17:15:22;1.40;;;1.30;;
5929;SDS011;2990;48.746;9.236;2023-01-01T17:17:47;0.30;;;0.30;;
5929;SDS011;2990;48.746;9.236;2023-01-01T17:20:13;0.30;;;0.30;;
5929;SDS011;2990;48.746;9.236;2023-01-01T17:22:41;0.20;;;0.20;;
5929;SDS011;2990;48.746;9.236;2023-01-01T17:25:07;0.30;;;0.30;;
5929;SDS011;2990;48.746;9.236;2023-01-01T17:27:34;0.80;;;0.80;;
5929;SDS011;2990;48.746;9.236;2023-01-01T17:29:59;0.20;;;0.20;;
5929;SDS011;2990;48.746;9.236;2023-01-01T17:32:25;0.47;;;0.30;;
5929;SDS011;2990;48.746;9.236;2023-01-01T17:34:51;1.98;;;0.55;;
5929;SDS011;2990;48.746;9.236;2023-01-01T17:37:16;0.20;;;0.20;;
5929;SDS011;2990;48.746;9.236;2023-01-01T17:39:42;0.20;;;0.20;;
5929;SDS011;2990;48.746;9.236;2023-01-01T17:42:07;0.20;;;0.20;;
5929;SDS011;2990;48.746;9.236;2023-01-01T17:44:33;0.40;;;0.40;;
5929;SDS011;2990;48.746;9.236;2023-01-01T17:46:58;0.68;;;0.30;;
5929;SDS011;2990;48.746;9.236;2023-01-01T17:49:24;0.55;;;0.45;;
5929;SDS011;2990;48.746;9.236;2023-01-01T17:51:49;0.30;;;0.30;;
5929;SDS011;2990;48.746;9.236;2023-01-01T17:54:15;0.30;;;0.30;;
5929;SDS011;2990;48.746;9.236;2023-01-01T17:56:41;0.35;;;0.35;;
5929;SDS011;2990;48.746;9.236;2023-01-01T17:59:06;0.30;;;0.30;;
5929;SDS011;2990;48.746;9.236;2023-01-01T18:01:33;0.20;;;0.20;;
5929;SDS011;2990;48.746;9.236;2023-01-01T18:04:03;0.90;;;0.90;;
5929;SDS011;2990;48.746;9.236;2023-01-01T18:06:31;0.20;;;0.20;;
5929;SDS011;2990;48.746;9.236;2023-01-01T18:08:59;0.17;;;0.17;;
5929;SDS011;2990;48.746;9.236;2023-01-01T18:11:27;0.88;;;0.73;;
5929;SDS011;2990;48.746;9.236;2023-01-01T18:13:54;2.70;;;0.45;;
5929;SDS011;2990;48.746;9.236;2023-01-01T18:16:21;0.47;;;0.47;;
5929;SDS011;2990;48.746;9.236;2023-01-01T18:18:46;0.45;;;0.45;;
5929;SDS011;2990;48.746;9.236;2023-01-01T18:21:13;0.17;;;0.15;;
5929;SDS011;2990;48.746;9.236;2023-01-01T18:23:51;0.38;;;0.38;;
5929;SDS011;2990;48.746;9.236;2023-01-01T18:26:19;0.28;;;0.28;;
5929;SDS011;2990;48.746;9.236;2023-01-01T18:28:49;0.20;;;0.20;;
5929;SDS011;2990;48.746;9.236;2023-01-01T18:31:22;0.70;;;0.70;;
5929;SDS011;2990;48.746;9.236;2023-01-01T18:33:48;0.40;;;0.40;;
5929;SDS011;2990;48.746;9.236;2023-01-01T18:36:15;0.30;;;0.30;;
5929;SDS011;2990;48.746;9.236;2023-01-01T18:38:43;0.20;;;0.20;;